createdAt,value
2019-05-16T00:00:54.534Z,11.70
2019-05-16T00:01:54.427Z,11.60
2019-05-16T00:02:54.320Z,11.20
2019-05-16T00:03:54.225Z,10.30
2019-05-16T00:04:54.119Z,10.60
2019-05-16T00:05:54.711Z,10.30
2019-05-16T00:06:53.924Z,10.20
2019-05-16T00:07:53.823Z,9.40
2019-05-16T00:08:53.722Z,9.30
2019-05-16T00:09:53.623Z,8.50
2019-05-16T00:10:53.540Z,8.40
2019-05-16T00:11:53.424Z,8.80
2019-05-16T00:12:53.322Z,9.30
2019-05-16T00:13:53.223Z,8.80
2019-05-16T00:14:53.123Z,8.80
2019-05-16T00:15:53.039Z,9.60
2019-05-16T00:16:52.925Z,9.10
2019-05-16T00:17:52.824Z,9.30
2019-05-16T00:18:52.730Z,9.30
2019-05-16T00:19:52.624Z,9.40
2019-05-16T00:20:52.530Z,9.20
2019-05-16T00:21:52.441Z,8.40
2019-05-16T00:22:52.328Z,8.50
2019-05-16T00:23:52.235Z,8.10
2019-05-16T00:24:52.126Z,8.30
2019-05-16T00:25:52.044Z,8.20
2019-05-16T00:26:51.929Z,8.30
2019-05-16T00:27:51.841Z,8.60
2019-05-16T00:28:51.728Z,8.30
2019-05-16T00:29:51.630Z,8.40
2019-05-16T00:30:51.533Z,8.60
2019-05-16T00:31:51.445Z,8.90
2019-05-16T00:32:51.359Z,8.70
2019-05-16T00:33:51.232Z,8.20
2019-05-16T00:34:51.133Z,8.70
2019-05-16T00:36:02.211Z,8.70
2019-05-16T00:36:50.952Z,8.40
2019-05-16T00:37:51.094Z,8.60
2019-05-16T00:38:50.734Z,9.30
2019-05-16T00:39:50.635Z,9.40
2019-05-16T00:40:50.541Z,9.00
2019-05-16T00:41:50.450Z,9.20
2019-05-16T00:42:50.337Z,9.20
2019-05-16T00:43:50.245Z,9.10
2019-05-16T00:44:50.238Z,9.20
2019-05-16T00:45:50.054Z,9.00
2019-05-16T00:46:49.950Z,8.40
2019-05-16T00:47:49.836Z,8.80
2019-05-16T00:48:49.735Z,8.70
2019-05-16T00:49:49.637Z,9.40
2019-05-16T00:50:49.538Z,8.90
2019-05-16T00:51:49.553Z,9.00
2019-05-16T00:52:49.341Z,9.20
2019-05-16T00:53:49.241Z,9.80
2019-05-16T00:54:49.140Z,10.50
2019-05-16T00:55:49.040Z,10.00
2019-05-16T00:56:48.951Z,10.30
2019-05-16T00:57:48.840Z,10.50
2019-05-16T00:58:48.842Z,9.90
2019-05-16T00:59:48.644Z,10.00
2019-05-16T01:00:50.056Z,10.20
2019-05-16T01:01:50.004Z,9.90
2019-05-16T01:02:48.691Z,10.50
2019-05-16T01:03:48.464Z,10.10
2019-05-16T01:04:48.690Z,11.40
2019-05-16T01:05:48.241Z,10.10
2019-05-16T01:06:48.476Z,10.60
2019-05-16T01:07:48.171Z,11.50
2019-05-16T01:08:48.782Z,11.80
2019-05-16T01:09:48.776Z,11.70
2019-05-16T01:10:48.484Z,11.30
2019-05-16T01:11:48.679Z,12.10
2019-05-16T01:12:48.087Z,11.90
2019-05-16T01:13:48.731Z,11.30
2019-05-16T01:14:47.820Z,11.80
2019-05-16T01:15:48.672Z,11.30
2019-05-16T01:16:48.799Z,12.20
2019-05-16T01:17:48.439Z,11.80
2019-05-16T01:18:48.594Z,12.30
2019-05-16T01:19:48.474Z,12.70
2019-05-16T01:20:48.073Z,12.80
2019-05-16T01:21:48.337Z,13.40
2019-05-16T01:22:48.809Z,12.50
2019-05-16T01:23:48.219Z,13.40
2019-05-16T01:24:46.153Z,13.90
2019-05-16T01:25:48.110Z,13.50
2019-05-16T01:26:48.372Z,13.60
2019-05-16T01:27:47.695Z,13.10
2019-05-16T01:28:45.750Z,12.80
2019-05-16T01:29:47.620Z,13.20
2019-05-16T01:30:45.554Z,13.70
2019-05-16T01:31:45.468Z,13.10
2019-05-16T01:32:45.352Z,13.80
2019-05-16T01:33:45.357Z,13.80
2019-05-16T01:34:45.154Z,13.80
2019-05-16T01:35:45.055Z,14.00
2019-05-16T01:36:44.969Z,13.60
2019-05-16T01:37:44.855Z,14.80
2019-05-16T01:38:44.756Z,14.80
2019-05-16T01:39:44.657Z,14.00
2019-05-16T01:40:44.658Z,13.90
2019-05-16T01:41:44.469Z,13.80
2019-05-16T01:42:44.355Z,14.70
2019-05-16T01:43:44.256Z,14.50
2019-05-16T01:44:44.171Z,15.50
2019-05-16T01:45:44.058Z,16.10
2019-05-16T01:46:43.970Z,15.20
2019-05-16T01:47:43.856Z,15.70
2019-05-16T01:48:43.756Z,15.20
2019-05-16T01:49:43.657Z,15.70
2019-05-16T01:50:43.559Z,15.40
2019-05-16T01:51:43.475Z,15.50
2019-05-16T01:52:43.361Z,15.20
2019-05-16T01:53:43.261Z,17.60
2019-05-16T01:54:43.870Z,16.50
2019-05-16T01:55:43.060Z,16.80
2019-05-16T01:56:42.961Z,17.00
2019-05-16T01:57:42.874Z,16.50
2019-05-16T01:58:42.762Z,16.10
2019-05-16T01:59:42.669Z,16.70
2019-05-16T02:00:52.728Z,16.90
2019-05-16T02:01:42.570Z,16.50
2019-05-16T02:02:42.379Z,16.40
2019-05-16T02:03:42.264Z,15.80
2019-05-16T02:04:42.161Z,16.20
2019-05-16T02:05:42.062Z,17.30
2019-05-16T02:06:51.660Z,17.00
2019-05-16T02:07:41.992Z,17.80
2019-05-16T02:08:41.766Z,17.90
2019-05-16T02:09:41.666Z,17.70
2019-05-16T02:10:41.565Z,18.20
2019-05-16T02:11:41.470Z,18.20
2019-05-16T02:12:41.380Z,19.10
2019-05-16T02:13:41.285Z,17.70
2019-05-16T02:14:41.166Z,18.50
2019-05-16T02:15:41.068Z,20.00
2019-05-16T02:16:40.969Z,19.20
2019-05-16T02:17:40.883Z,19.80
2019-05-16T02:18:40.771Z,19.30
2019-05-16T02:19:40.669Z,20.30
2019-05-16T02:20:40.570Z,19.20
2019-05-16T02:21:40.468Z,19.80
2019-05-16T02:22:40.385Z,20.80
2019-05-16T02:23:40.272Z,21.00
2019-05-16T02:24:40.172Z,21.80
2019-05-16T02:25:40.807Z,20.90
2019-05-16T02:26:39.969Z,20.10
2019-05-16T02:27:41.030Z,21.80
2019-05-16T02:28:43.554Z,21.30
2019-05-16T02:29:40.209Z,22.80
2019-05-16T02:30:42.200Z,22.70
2019-05-16T02:31:42.145Z,22.90
2019-05-16T02:32:41.688Z,23.50
2019-05-16T02:33:40.559Z,23.30
2019-05-16T02:34:41.634Z,24.80
2019-05-16T02:35:40.486Z,23.30
2019-05-16T02:36:40.538Z,24.10
2019-05-16T02:37:42.217Z,24.20
2019-05-16T02:38:42.005Z,23.80
2019-05-16T02:39:40.934Z,24.60
2019-05-16T02:40:41.508Z,24.00
2019-05-16T02:41:38.479Z,43.80
2019-05-16T02:42:41.756Z,25.60
2019-05-16T02:43:41.686Z,25.60
2019-05-16T02:44:40.917Z,26.70
2019-05-16T02:45:41.385Z,28.50
2019-05-16T02:46:41.623Z,26.90
2019-05-16T02:47:37.890Z,26.90
2019-05-16T02:48:40.825Z,28.30
2019-05-16T02:49:37.676Z,26.50
2019-05-16T02:50:37.576Z,25.90
2019-05-16T02:51:40.417Z,27.90
2019-05-16T02:52:37.391Z,29.30
2019-05-16T02:53:37.276Z,29.60
2019-05-16T02:54:37.176Z,28.50
2019-05-16T02:55:37.075Z,29.10
2019-05-16T02:56:36.976Z,28.70
2019-05-16T02:57:36.888Z,28.40
2019-05-16T02:58:36.782Z,28.70
2019-05-16T02:59:36.680Z,29.90
2019-05-16T03:00:36.578Z,30.40
2019-05-16T03:01:36.478Z,32.50
2019-05-16T03:02:36.391Z,30.00
2019-05-16T03:03:36.278Z,30.60
2019-05-16T03:04:39.943Z,29.30
2019-05-16T03:05:36.082Z,28.70
2019-05-16T03:06:35.985Z,29.30
2019-05-16T03:07:41.646Z,29.00
2019-05-16T03:08:35.775Z,29.80
2019-05-16T03:09:35.675Z,29.00
2019-05-16T03:10:35.606Z,28.70
2019-05-16T03:11:35.477Z,27.80
2019-05-16T03:12:35.392Z,28.10
2019-05-16T03:13:35.277Z,28.20
2019-05-16T03:14:35.186Z,27.30
2019-05-16T03:15:35.077Z,26.80
2019-05-16T03:16:34.976Z,26.80
2019-05-16T03:17:34.889Z,28.80
2019-05-16T03:18:34.777Z,27.60
2019-05-16T03:19:34.676Z,28.20
2019-05-16T03:20:34.584Z,27.60
2019-05-16T03:21:34.476Z,27.80
2019-05-16T03:22:34.391Z,28.90
2019-05-16T03:23:34.275Z,28.90
2019-05-16T03:24:34.478Z,28.40
2019-05-16T03:25:34.080Z,28.40
2019-05-16T03:26:33.976Z,29.10
2019-05-16T03:27:33.890Z,29.20
2019-05-16T03:28:33.776Z,30.40
2019-05-16T03:29:33.687Z,27.60
2019-05-16T03:30:35.383Z,28.60
2019-05-16T03:31:34.487Z,28.30
2019-05-16T03:32:34.609Z,28.90
2019-05-16T03:33:41.590Z,30.00
2019-05-16T03:34:34.426Z,28.70
2019-05-16T03:35:34.354Z,28.40
2019-05-16T03:36:34.569Z,27.70
2019-05-16T03:37:49.514Z,29.70
2019-05-16T03:38:32.790Z,28.80
2019-05-16T03:39:32.695Z,27.10
2019-05-16T03:40:32.581Z,27.80
2019-05-16T03:41:32.479Z,28.90
2019-05-16T03:42:32.378Z,29.40
2019-05-16T03:43:32.294Z,30.10
2019-05-16T03:44:32.178Z,28.90
2019-05-16T03:45:32.382Z,30.00
2019-05-16T03:46:31.980Z,30.70
2019-05-16T03:47:31.883Z,29.10
2019-05-16T03:48:31.864Z,30.80
2019-05-16T03:49:31.677Z,28.90
2019-05-16T03:50:31.575Z,27.80
2019-05-16T03:51:31.479Z,29.70
2019-05-16T03:52:31.379Z,29.80
2019-05-16T03:53:31.971Z,30.40
2019-05-16T03:54:31.647Z,29.10
2019-05-16T03:55:32.416Z,29.20
2019-05-16T03:56:30.979Z,30.40
2019-05-16T03:57:30.882Z,29.30
2019-05-16T03:58:31.141Z,30.10
2019-05-16T03:59:31.508Z,28.80
2019-05-16T04:00:31.648Z,28.90
2019-05-16T04:01:31.270Z,29.50
2019-05-16T04:02:31.103Z,28.30
2019-05-16T04:03:33.088Z,29.40
2019-05-16T04:04:30.931Z,28.90
2019-05-16T04:05:31.763Z,31.50
2019-05-16T04:06:31.166Z,30.10
2019-05-16T04:07:31.711Z,29.70
2019-05-16T04:08:31.080Z,28.30
2019-05-16T04:09:31.563Z,30.80
2019-05-16T04:10:30.984Z,28.80
2019-05-16T04:11:32.072Z,29.80
2019-05-16T04:12:30.876Z,28.80
2019-05-16T04:13:31.436Z,27.90
2019-05-16T04:14:30.950Z,28.10
2019-05-16T04:15:31.108Z,29.00
2019-05-16T04:16:31.404Z,29.00
2019-05-16T04:17:31.407Z,28.20
2019-05-16T04:18:31.855Z,27.00
2019-05-16T04:19:31.286Z,27.50
2019-05-16T04:20:30.449Z,30.30
2019-05-16T04:21:31.878Z,29.80
2019-05-16T04:22:31.526Z,32.50
2019-05-16T04:23:30.998Z,35.20
2019-05-16T04:24:31.412Z,33.20
2019-05-16T04:25:30.939Z,30.20
2019-05-16T04:26:30.570Z,27.80
2019-05-16T04:27:30.831Z,27.80
2019-05-16T04:28:27.800Z,27.90
2019-05-16T04:29:27.676Z,27.10
2019-05-16T04:30:31.033Z,26.10
2019-05-16T04:31:30.535Z,24.60
2019-05-16T04:32:27.376Z,27.90
2019-05-16T04:33:30.604Z,26.40
2019-05-16T04:34:27.176Z,26.50
2019-05-16T04:35:27.393Z,28.30
2019-05-16T04:36:26.988Z,28.80
2019-05-16T04:37:26.877Z,27.40
2019-05-16T04:38:39.086Z,25.60
2019-05-16T04:39:26.675Z,25.90
2019-05-16T04:40:26.578Z,31.40
2019-05-16T04:41:26.476Z,34.10
2019-05-16T04:42:26.484Z,39.10
2019-05-16T04:43:26.292Z,40.80
2019-05-16T04:44:26.178Z,40.60
2019-05-16T04:45:26.076Z,43.40
2019-05-16T04:46:25.974Z,37.30
2019-05-16T04:47:25.893Z,50.50
2019-05-16T04:48:25.899Z,57.30
2019-05-16T04:49:25.679Z,65.80
2019-05-16T04:50:25.576Z,57.50
2019-05-16T04:51:25.478Z,50.00
2019-05-16T04:52:25.381Z,52.00
2019-05-16T04:53:25.283Z,49.80
2019-05-16T04:54:25.191Z,48.80
2019-05-16T04:55:25.078Z,66.50
2019-05-16T04:56:24.975Z,72.40
2019-05-16T04:57:24.875Z,66.50
2019-05-16T04:58:24.780Z,78.60
2019-05-16T04:59:24.698Z,75.20
2019-05-16T05:00:24.578Z,73.10
2019-05-16T05:01:24.476Z,55.20
2019-05-16T05:02:24.377Z,48.40
2019-05-16T05:03:24.281Z,42.50
2019-05-16T05:04:24.192Z,35.50
2019-05-16T05:05:24.090Z,33.80
2019-05-16T05:06:23.976Z,35.90
2019-05-16T05:07:23.878Z,32.10
2019-05-16T05:08:23.782Z,28.90
2019-05-16T05:09:23.692Z,33.00
2019-05-16T05:10:23.575Z,42.40
2019-05-16T05:11:23.480Z,41.10
2019-05-16T05:12:23.375Z,33.20
2019-05-16T05:13:23.277Z,29.10
2019-05-16T05:14:23.191Z,28.70
2019-05-16T05:15:23.076Z,27.80
2019-05-16T05:16:22.977Z,26.70
2019-05-16T05:17:22.877Z,28.00
2019-05-16T05:18:22.775Z,29.90
2019-05-16T05:19:22.691Z,36.40
2019-05-16T05:20:22.576Z,39.00
2019-05-16T05:21:22.478Z,39.10
2019-05-16T05:22:22.375Z,40.50
2019-05-16T05:23:22.285Z,36.90
2019-05-16T05:24:22.190Z,33.90
2019-05-16T05:25:22.079Z,32.10
2019-05-16T05:26:21.976Z,28.10
2019-05-16T05:27:21.880Z,26.60
2019-05-16T05:28:21.781Z,24.40
2019-05-16T05:29:21.689Z,27.00
2019-05-16T05:30:21.575Z,24.60
2019-05-16T05:31:24.720Z,25.40
2019-05-16T05:32:21.376Z,25.10
2019-05-16T05:33:21.496Z,25.80
2019-05-16T05:34:21.189Z,25.00
2019-05-16T05:35:21.085Z,23.00
2019-05-16T05:36:21.268Z,22.10
2019-05-16T05:37:20.874Z,23.80
2019-05-16T05:38:21.573Z,23.40
2019-05-16T05:39:20.690Z,23.80
2019-05-16T05:40:20.575Z,25.20
2019-05-16T05:41:20.475Z,24.50
2019-05-16T05:42:20.377Z,25.00
2019-05-16T05:43:21.550Z,23.30
2019-05-16T05:44:20.445Z,24.20
2019-05-16T05:45:20.263Z,24.50
2019-05-16T05:46:20.543Z,23.10
2019-05-16T05:47:20.064Z,24.40
2019-05-16T05:48:21.523Z,23.70
2019-05-16T05:49:20.495Z,24.20
2019-05-16T05:50:20.160Z,24.10
2019-05-16T05:51:20.740Z,24.90
2019-05-16T05:52:20.812Z,25.90
2019-05-16T05:53:20.762Z,26.70
2019-05-16T05:54:20.372Z,25.10
2019-05-16T05:55:20.127Z,24.40
2019-05-16T05:56:19.781Z,23.20
2019-05-16T05:57:20.875Z,24.70
2019-05-16T05:58:20.598Z,25.10
2019-05-16T05:59:20.170Z,24.60
2019-05-16T06:00:21.055Z,27.80
2019-05-16T06:01:20.586Z,24.30
2019-05-16T06:02:20.145Z,25.30
2019-05-16T06:03:21.635Z,28.20
2019-05-16T06:04:19.772Z,25.00
2019-05-16T06:05:20.239Z,24.20
2019-05-16T06:06:17.979Z,24.30
2019-05-16T06:07:20.429Z,24.70
2019-05-16T06:08:19.936Z,22.00
2019-05-16T06:09:26.331Z,22.30
2019-05-16T06:10:19.761Z,22.00
2019-05-16T06:11:17.490Z,22.00
2019-05-16T06:12:17.484Z,21.50
2019-05-16T06:13:17.275Z,21.70
2019-05-16T06:14:17.200Z,22.40
2019-05-16T06:15:17.075Z,23.30
2019-05-16T06:16:16.977Z,20.90
2019-05-16T06:17:16.878Z,20.00
2019-05-16T06:18:16.779Z,18.40
2019-05-16T06:19:16.694Z,20.00
2019-05-16T06:20:16.583Z,18.60
2019-05-16T06:21:16.475Z,18.10
2019-05-16T06:22:16.377Z,16.60
2019-05-16T06:23:16.279Z,16.30
2019-05-16T06:24:16.469Z,16.90
2019-05-16T06:25:16.082Z,16.60
2019-05-16T06:26:16.078Z,15.70
2019-05-16T06:27:15.885Z,17.90
2019-05-16T06:28:15.782Z,16.80
2019-05-16T06:29:15.694Z,18.80
2019-05-16T06:30:15.576Z,17.00
2019-05-16T06:31:15.478Z,17.40
2019-05-16T06:32:15.376Z,17.00
2019-05-16T06:33:15.376Z,17.20
2019-05-16T06:34:15.477Z,18.50
2019-05-16T06:35:15.091Z,17.80
2019-05-16T06:36:14.978Z,18.30
2019-05-16T06:37:14.878Z,16.20
2019-05-16T06:38:14.780Z,17.10
2019-05-16T06:39:14.680Z,18.50
2019-05-16T06:40:14.677Z,18.20
2019-05-16T06:41:14.480Z,16.50
2019-05-16T06:42:14.381Z,17.10
2019-05-16T06:43:14.280Z,17.90
2019-05-16T06:44:14.179Z,16.50
2019-05-16T06:45:14.096Z,16.00
2019-05-16T06:46:13.979Z,16.90
2019-05-16T06:47:19.617Z,16.30
2019-05-16T06:48:13.780Z,17.30
2019-05-16T06:49:13.691Z,17.20
2019-05-16T06:50:13.594Z,17.30
2019-05-16T06:51:13.484Z,16.50
2019-05-16T06:52:13.382Z,17.20
2019-05-16T06:53:13.284Z,17.10
2019-05-16T06:54:13.289Z,18.20
2019-05-16T06:55:13.097Z,17.10
2019-05-16T06:56:12.992Z,16.60
2019-05-16T06:57:12.883Z,16.70
2019-05-16T06:58:12.786Z,16.30
2019-05-16T06:59:12.692Z,16.70
2019-05-16T07:00:12.601Z,17.10
2019-05-16T07:01:12.596Z,17.50
2019-05-16T07:02:26.271Z,16.60
2019-05-16T07:03:12.742Z,17.50
2019-05-16T07:04:12.191Z,17.70
2019-05-16T07:05:12.103Z,18.80
2019-05-16T07:06:29.894Z,18.80
2019-05-16T07:07:12.688Z,18.40
2019-05-16T07:08:11.915Z,20.90
2019-05-16T07:09:11.690Z,20.60
2019-05-16T07:10:11.604Z,19.60
2019-05-16T07:11:11.491Z,19.00
2019-05-16T07:12:11.394Z,19.70
2019-05-16T07:13:11.293Z,19.20
2019-05-16T07:14:11.202Z,19.50
2019-05-16T07:15:12.169Z,19.80
2019-05-16T07:16:10.993Z,19.80
2019-05-16T07:17:10.890Z,20.00
2019-05-16T07:18:13.049Z,19.20
2019-05-16T07:19:10.745Z,19.80
2019-05-16T07:20:10.732Z,19.40
2019-05-16T07:21:10.971Z,19.10
2019-05-16T07:22:11.201Z,17.30
2019-05-16T07:23:10.295Z,19.60
2019-05-16T07:24:10.973Z,18.00
2019-05-16T07:25:10.999Z,17.60
2019-05-16T07:26:10.083Z,14.90
2019-05-16T07:27:12.386Z,15.90
2019-05-16T07:28:10.300Z,14.50
2019-05-16T07:29:10.996Z,16.10
2019-05-16T07:30:10.581Z,15.30
2019-05-16T07:31:17.647Z,15.50
2019-05-16T07:32:09.399Z,14.70
2019-05-16T07:33:09.777Z,14.80
2019-05-16T07:34:10.786Z,14.70
2019-05-16T07:35:09.768Z,15.30
2019-05-16T07:36:09.895Z,15.30
2019-05-16T07:37:10.781Z,15.50
2019-05-16T07:38:10.685Z,14.40
2019-05-16T07:39:10.857Z,14.20
2019-05-16T07:40:19.070Z,12.60
2019-05-16T07:41:10.977Z,12.40
2019-05-16T07:42:10.963Z,12.70
2019-05-16T07:43:10.599Z,12.80
2019-05-16T07:44:10.877Z,12.10
2019-05-16T07:45:10.948Z,12.60
2019-05-16T07:46:08.016Z,13.00
2019-05-16T07:47:07.904Z,12.90
2019-05-16T07:48:07.803Z,13.40
2019-05-16T07:49:07.715Z,13.30
2019-05-16T07:50:07.604Z,12.60
2019-05-16T07:51:10.109Z,13.30
2019-05-16T07:52:09.803Z,12.80
2019-05-16T07:53:07.305Z,14.30
2019-05-16T07:54:07.210Z,13.40
2019-05-16T07:55:07.106Z,13.60
2019-05-16T07:56:07.020Z,13.30
2019-05-16T07:57:18.611Z,13.90
2019-05-16T07:58:06.808Z,13.20
2019-05-16T07:59:06.710Z,13.40
2019-05-16T08:00:06.610Z,14.50
2019-05-16T08:01:09.068Z,14.10
2019-05-16T08:02:06.411Z,13.60
2019-05-16T08:03:06.315Z,16.00
2019-05-16T08:04:06.215Z,15.00
2019-05-16T08:05:06.111Z,13.40
2019-05-16T08:06:06.036Z,14.00
2019-05-16T08:07:05.986Z,12.90
2019-05-16T08:08:05.813Z,12.60
2019-05-16T08:09:07.809Z,13.40
2019-05-16T08:10:05.615Z,13.50
2019-05-16T08:11:05.526Z,13.40
2019-05-16T08:12:06.000Z,13.50
2019-05-16T08:13:05.328Z,12.80
2019-05-16T08:14:05.216Z,13.00
2019-05-16T08:15:05.118Z,12.70
2019-05-16T08:16:05.039Z,13.20
2019-05-16T08:17:04.919Z,13.10
2019-05-16T08:18:04.820Z,12.60
2019-05-16T08:19:04.721Z,10.80
2019-05-16T08:20:04.653Z,9.50
2019-05-16T08:21:04.538Z,9.80
2019-05-16T08:22:04.426Z,10.10
2019-05-16T08:23:04.325Z,10.70
2019-05-16T08:24:07.382Z,9.30
2019-05-16T08:25:04.125Z,9.20
2019-05-16T08:26:04.072Z,9.00
2019-05-16T08:27:03.927Z,9.70
2019-05-16T08:28:03.828Z,10.10
2019-05-16T08:29:03.731Z,9.40
2019-05-16T08:30:03.632Z,9.10
2019-05-16T08:31:03.551Z,8.90
2019-05-16T08:32:03.437Z,8.60
2019-05-16T08:33:03.343Z,9.20
2019-05-16T08:34:03.234Z,8.70
2019-05-16T08:35:03.136Z,8.50
2019-05-16T08:36:08.089Z,8.30
2019-05-16T08:37:02.938Z,7.90
2019-05-16T08:38:02.841Z,5.60
2019-05-16T08:39:02.741Z,6.20
2019-05-16T08:40:02.645Z,6.60
2019-05-16T08:42:08.034Z,7.40
2019-05-16T08:43:02.340Z,7.00
2019-05-16T08:44:02.264Z,6.70
2019-05-16T08:45:02.303Z,6.20
2019-05-16T08:46:02.045Z,5.70
2019-05-16T08:47:06.170Z,4.60
2019-05-16T08:48:01.843Z,4.30
2019-05-16T08:49:01.752Z,4.60
2019-05-16T08:50:01.695Z,4.60
2019-05-16T08:50:05.526Z,7.00
2019-05-16T08:51:02.724Z,4.60
2019-05-16T08:52:01.637Z,4.10
2019-05-16T08:53:02.883Z,4.90
2019-05-16T08:54:01.666Z,5.00
2019-05-16T08:55:03.436Z,4.90
2019-05-16T08:56:02.685Z,5.00
2019-05-16T08:57:17.547Z,5.00
2019-05-16T08:58:02.485Z,4.90
2019-05-16T08:59:02.721Z,4.30
2019-05-16T09:00:01.533Z,5.20
2019-05-16T09:01:02.184Z,4.90
2019-05-16T09:02:03.239Z,4.50
2019-05-16T09:03:01.784Z,4.30
2019-05-16T09:05:04.921Z,4.10
2019-05-16T09:06:02.990Z,3.80
2019-05-16T09:07:01.993Z,4.10
2019-05-16T09:08:00.986Z,4.40
2019-05-16T09:09:15.804Z,4.00
2019-05-16T09:10:00.328Z,4.20
2019-05-16T09:10:41.404Z,4.00
2019-05-16T09:11:04.786Z,4.00
2019-05-16T09:11:59.484Z,3.90
2019-05-16T09:12:59.366Z,3.90
2019-05-16T09:13:59.271Z,3.90
2019-05-16T09:14:59.572Z,3.90
2019-05-16T09:15:59.074Z,4.00
2019-05-16T09:16:58.984Z,4.40
2019-05-16T09:17:58.876Z,4.00
2019-05-16T09:18:58.773Z,4.40
2019-05-16T09:19:58.674Z,4.20
2019-05-16T09:20:58.575Z,4.60
2019-05-16T09:21:58.493Z,4.00
2019-05-16T09:22:58.697Z,3.80
2019-05-16T09:23:58.276Z,4.20
2019-05-16T09:24:58.181Z,4.10
2019-05-16T09:26:07.064Z,3.90
2019-05-16T09:26:58.112Z,4.20
2019-05-16T09:27:58.009Z,3.60
2019-05-16T09:28:57.782Z,3.80
2019-05-16T09:29:57.684Z,3.80
2019-05-16T09:30:57.936Z,4.20
2019-05-16T09:32:09.056Z,4.10
2019-05-16T09:32:58.826Z,3.90
2019-05-16T09:33:57.294Z,4.00
2019-05-16T09:34:57.749Z,4.30
2019-05-16T09:35:57.622Z,3.80
2019-05-16T09:37:00.598Z,4.10
2019-05-16T09:37:57.562Z,4.10
2019-05-16T09:38:57.748Z,3.90
2019-05-16T09:39:57.218Z,3.60
2019-05-16T09:40:57.116Z,3.70
2019-05-16T09:41:58.922Z,3.60
2019-05-16T09:42:56.927Z,3.50
2019-05-16T09:43:58.850Z,3.70
2019-05-16T09:44:57.705Z,3.50
2019-05-16T09:46:03.214Z,3.40
2019-05-16T09:46:56.974Z,3.10
2019-05-16T09:47:57.339Z,3.30
2019-05-16T09:49:12.993Z,3.40
2019-05-16T09:49:57.943Z,3.60
2019-05-16T09:50:57.716Z,3.40
2019-05-16T09:51:56.811Z,3.80
2019-05-16T09:52:56.572Z,4.50
2019-05-16T09:53:56.724Z,4.20
2019-05-16T09:54:57.519Z,4.50
2019-05-16T09:55:57.322Z,4.20
2019-05-16T09:56:57.006Z,3.80
2019-05-16T09:57:58.190Z,4.20
2019-05-16T09:58:57.234Z,4.40
2019-05-16T09:59:57.053Z,4.40
2019-05-16T10:00:57.309Z,4.20
2019-05-16T10:01:56.929Z,4.40
2019-05-16T10:02:54.547Z,4.50
2019-05-16T10:03:54.325Z,4.10
2019-05-16T10:04:54.229Z,4.60
2019-05-16T10:05:56.941Z,4.20
2019-05-16T10:06:54.030Z,5.40
2019-05-16T10:07:53.949Z,4.60
2019-05-16T10:08:53.833Z,4.30
2019-05-16T10:09:53.854Z,4.40
2019-05-16T10:10:53.637Z,4.30
2019-05-16T10:12:06.994Z,4.50
2019-05-16T10:12:53.455Z,4.60
2019-05-16T10:13:53.341Z,4.80
2019-05-16T10:14:53.245Z,4.90
2019-05-16T10:15:53.145Z,5.20
2019-05-16T10:16:53.154Z,5.50
2019-05-16T10:17:52.961Z,5.20
2019-05-16T10:18:52.845Z,5.20
2019-05-16T10:19:52.749Z,5.60
2019-05-16T10:20:52.652Z,5.60
2019-05-16T10:21:52.552Z,5.90
2019-05-16T10:22:52.575Z,6.10
2019-05-16T10:23:52.361Z,6.30
2019-05-16T10:24:52.260Z,6.80
2019-05-16T10:25:52.159Z,6.50
2019-05-16T10:26:54.009Z,7.20
2019-05-16T10:27:51.976Z,6.80
2019-05-16T10:28:51.864Z,7.20
2019-05-16T10:29:51.768Z,7.30
2019-05-16T10:30:51.779Z,7.70
2019-05-16T10:31:53.230Z,7.80
2019-05-16T10:32:51.485Z,7.60
2019-05-16T10:33:51.373Z,7.60
2019-05-16T10:34:51.272Z,7.70
2019-05-16T10:35:51.174Z,7.70
2019-05-16T10:36:51.198Z,8.30
2019-05-16T10:37:50.992Z,8.30
2019-05-16T10:38:50.895Z,8.70
2019-05-16T10:39:50.781Z,9.00
2019-05-16T10:40:50.735Z,10.30
2019-05-16T10:41:50.582Z,10.20
2019-05-16T10:42:50.487Z,9.10
2019-05-16T10:43:50.397Z,10.20
2019-05-16T10:44:50.286Z,10.70
2019-05-16T10:45:50.190Z,10.30
2019-05-16T10:46:50.102Z,10.00
2019-05-16T10:47:49.995Z,10.60
2019-05-16T10:48:49.908Z,10.10
2019-05-16T10:49:49.798Z,9.40
2019-05-16T10:50:49.756Z,10.40
2019-05-16T10:51:49.630Z,10.30
2019-05-16T10:53:12.992Z,10.70
2019-05-16T10:54:05.771Z,9.70
2019-05-16T10:54:57.580Z,10.80
2019-05-16T10:55:49.204Z,10.50
2019-05-16T10:56:49.202Z,10.90
2019-05-16T10:57:49.105Z,11.40
2019-05-16T10:59:14.654Z,10.80
2019-05-16T11:00:05.156Z,10.60
2019-05-16T11:01:10.945Z,10.60
2019-05-16T11:01:48.617Z,11.30
2019-05-16T11:02:48.548Z,12.60
2019-05-16T11:03:49.181Z,13.30
2019-05-16T11:05:00.122Z,12.70
2019-05-16T11:06:01.393Z,11.50
2019-05-16T11:06:48.123Z,11.70
2019-05-16T11:07:50.611Z,11.30
2019-05-16T11:08:47.939Z,11.30
2019-05-16T11:09:58.336Z,11.10
2019-05-16T11:10:47.806Z,12.50
2019-05-16T11:11:47.835Z,11.90
2019-05-16T11:12:54.128Z,11.90
2019-05-16T11:13:50.571Z,12.60
2019-05-16T11:14:47.904Z,12.20
2019-05-16T11:15:47.238Z,11.80
2019-05-16T11:16:47.480Z,10.60
2019-05-16T11:17:47.042Z,11.10
2019-05-16T11:18:46.959Z,11.40
2019-05-16T11:19:46.845Z,10.90
2019-05-16T11:20:49.285Z,10.90
2019-05-16T11:21:46.961Z,11.40
2019-05-16T11:22:47.740Z,10.90
2019-05-16T11:23:47.115Z,10.30
2019-05-16T11:24:47.100Z,10.70
2019-05-16T11:25:47.146Z,10.40
2019-05-16T11:26:47.342Z,10.40
2019-05-16T11:27:46.879Z,11.30
2019-05-16T11:28:48.635Z,10.50
2019-05-16T11:29:47.288Z,11.60
2019-05-16T11:30:47.630Z,11.00
2019-05-16T11:31:46.772Z,9.70
2019-05-16T11:32:46.918Z,9.80
2019-05-16T11:33:47.756Z,10.50
2019-05-16T11:34:47.778Z,9.50
2019-05-16T11:35:47.624Z,9.40
2019-05-16T11:36:47.561Z,10.10
2019-05-16T11:37:47.138Z,9.60
2019-05-16T11:38:47.474Z,9.70
2019-05-16T11:39:46.594Z,9.40
2019-05-16T11:40:47.289Z,9.50
2019-05-16T11:41:47.334Z,10.00
2019-05-16T11:42:47.050Z,10.70
2019-05-16T11:43:44.509Z,10.50
2019-05-16T11:44:47.606Z,9.60
2019-05-16T11:45:46.711Z,9.40
2019-05-16T11:46:44.200Z,9.60
2019-05-16T11:47:46.840Z,10.60
2019-05-16T11:48:44.006Z,10.40
2019-05-16T11:49:43.927Z,9.90
2019-05-16T11:50:43.824Z,9.90
2019-05-16T11:51:43.719Z,9.90
2019-05-16T11:52:43.614Z,10.90
2019-05-16T11:53:43.660Z,10.30
2019-05-16T11:54:43.422Z,8.90
2019-05-16T11:55:52.114Z,9.60
2019-05-16T11:56:43.223Z,9.50
2019-05-16T11:57:43.126Z,9.60
2019-05-16T11:58:43.032Z,8.80
2019-05-16T11:59:42.946Z,9.60
2019-05-16T12:00:42.935Z,8.80
2019-05-16T12:01:42.735Z,9.00
2019-05-16T12:02:43.107Z,9.30
2019-05-16T12:03:42.542Z,8.30
2019-05-16T12:04:42.456Z,8.90
2019-05-16T12:05:42.348Z,9.20
2019-05-16T12:06:42.250Z,9.00
2019-05-16T12:07:44.378Z,9.40
2019-05-16T12:08:42.053Z,8.00
2019-05-16T12:09:47.025Z,7.60
2019-05-16T12:10:41.860Z,7.90
2019-05-16T12:11:41.760Z,7.80
2019-05-16T12:12:41.663Z,8.70
2019-05-16T12:13:41.568Z,9.10
2019-05-16T12:14:41.611Z,9.20
2019-05-16T12:15:41.372Z,9.90
2019-05-16T12:16:41.275Z,8.70
2019-05-16T12:17:41.198Z,8.90
2019-05-16T12:18:41.081Z,8.50
2019-05-16T12:19:43.979Z,7.10
2019-05-16T12:20:40.890Z,7.90
2019-05-16T12:21:40.891Z,7.80
2019-05-16T12:22:40.693Z,8.50
2019-05-16T12:23:40.595Z,8.70
2019-05-16T12:24:41.490Z,8.70
2019-05-16T12:25:40.399Z,9.00
2019-05-16T12:26:40.311Z,9.50
2019-05-16T12:27:42.094Z,9.10
2019-05-16T12:28:40.219Z,8.20
2019-05-16T12:29:40.023Z,8.40
2019-05-16T12:30:40.471Z,9.80
2019-05-16T12:31:54.129Z,10.00
2019-05-16T12:32:39.720Z,10.40
2019-05-16T12:33:39.628Z,12.50
2019-05-16T12:34:39.539Z,9.80
2019-05-16T12:35:39.530Z,10.50
2019-05-16T12:36:39.338Z,9.30
2019-05-16T12:37:39.233Z,10.00
2019-05-16T12:38:39.134Z,10.10
2019-05-16T12:39:39.053Z,10.60
2019-05-16T12:40:38.940Z,9.80
2019-05-16T12:41:41.108Z,10.30
2019-05-16T12:42:38.858Z,10.10
2019-05-16T12:43:48.969Z,10.20
2019-05-16T12:44:38.567Z,9.70
2019-05-16T12:45:38.856Z,10.20
2019-05-16T12:46:38.361Z,10.90
2019-05-16T12:47:38.262Z,12.30
2019-05-16T12:48:38.163Z,13.00
2019-05-16T12:49:38.082Z,13.10
2019-05-16T12:50:38.909Z,13.60
2019-05-16T12:51:37.872Z,13.30
2019-05-16T12:52:38.390Z,12.80
2019-05-16T12:53:37.676Z,11.90
2019-05-16T12:54:37.607Z,11.00
2019-05-16T12:55:37.479Z,11.50
2019-05-16T12:56:37.842Z,11.10
2019-05-16T12:57:38.334Z,11.50
2019-05-16T12:58:41.407Z,11.50
2019-05-16T12:59:37.402Z,11.50